createdAt,value
2022-09-23T00:00:09.002Z,4.75
2022-09-23T00:03:16.996Z,4.75
2022-09-23T00:06:11.757Z,4.75
2022-09-23T00:08:59.531Z,4.69
2022-09-23T00:11:47.486Z,4.75
2022-09-23T00:14:37.362Z,4.69
2022-09-23T00:17:25.614Z,4.75
2022-09-23T00:20:14.627Z,4.75
2022-09-23T00:23:02.902Z,4.75
2022-09-23T00:25:59.374Z,4.69
2022-09-23T00:28:49.137Z,4.69
2022-09-23T00:31:39.023Z,4.69
2022-09-23T00:34:26.947Z,4.69
2022-09-23T00:37:16.832Z,4.69
2022-09-23T00:40:05.412Z,4.69
2022-09-23T00:42:53.004Z,4.69
2022-09-23T00:45:45.654Z,4.69
2022-09-23T00:48:35.716Z,4.69
2022-09-23T00:51:28.275Z,4.63
2022-09-23T00:54:18.172Z,4.63
2022-09-23T00:57:07.112Z,4.63
2022-09-23T00:59:55.278Z,4.63
2022-09-23T01:02:43.226Z,4.63
2022-09-23T01:05:33.702Z,4.63
2022-09-23T01:08:23.773Z,4.63
2022-09-23T01:11:48.706Z,4.63
2022-09-23T01:14:56.212Z,4.63
2022-09-23T01:18:03.067Z,4.56
2022-09-23T01:21:18.833Z,4.56
2022-09-23T01:24:48.538Z,4.56
2022-09-23T01:27:56.577Z,4.50
2022-09-23T01:31:10.402Z,4.50
2022-09-23T01:34:26.731Z,4.50
2022-09-23T01:37:41.207Z,4.50
2022-09-23T01:41:13.777Z,4.50
2022-09-23T01:44:12.671Z,4.50
2022-09-23T01:47:27.455Z,4.44
2022-09-23T01:50:39.782Z,4.44
2022-09-23T01:53:33.561Z,4.44
2022-09-23T01:56:33.669Z,4.44
2022-09-23T01:59:38.437Z,4.38
2022-09-23T02:02:36.516Z,4.44
2022-09-23T02:05:37.709Z,4.44
2022-09-23T02:08:53.393Z,4.44
2022-09-23T02:11:46.323Z,4.44
2022-09-23T02:15:11.955Z,4.50
2022-09-23T02:18:13.191Z,4.50
2022-09-23T02:21:07.496Z,4.50
2022-09-23T02:24:09.285Z,4.50
2022-09-23T02:27:40.566Z,4.50
2022-09-23T02:30:40.044Z,4.50
2022-09-23T02:33:39.361Z,4.56
2022-09-23T02:36:54.414Z,4.56
2022-09-23T02:40:20.737Z,4.56
2022-09-23T02:43:19.946Z,4.63
2022-09-23T02:46:08.247Z,4.69
2022-09-23T02:49:04.294Z,4.63
2022-09-23T02:51:54.733Z,4.69
2022-09-23T02:54:42.940Z,4.69
2022-09-23T02:57:31.583Z,4.69
2022-09-23T03:00:20.213Z,4.75
2022-09-23T03:03:49.029Z,4.75
2022-09-23T03:06:57.882Z,4.81
2022-09-23T03:10:10.678Z,4.81
2022-09-23T03:13:30.130Z,4.81
2022-09-23T03:17:04.370Z,4.88
2022-09-23T03:20:38.760Z,4.88
2022-09-23T03:23:37.456Z,4.94
2022-09-23T03:26:33.594Z,4.94
2022-09-23T03:29:23.625Z,5.00
2022-09-23T03:32:14.860Z,5.00
2022-09-23T03:35:06.161Z,5.00
2022-09-23T03:38:12.421Z,5.06
2022-09-23T03:41:04.306Z,5.06
2022-09-23T03:43:53.535Z,5.13
2022-09-23T03:46:44.284Z,5.19
2022-09-23T03:49:40.016Z,5.19
2022-09-23T03:52:28.706Z,5.19
2022-09-23T03:55:19.461Z,5.19
2022-09-23T03:58:08.537Z,5.19
2022-09-23T04:00:58.984Z,5.19
2022-09-23T04:03:46.962Z,5.25
2022-09-23T04:06:35.856Z,5.25
2022-09-23T04:09:24.312Z,5.25
2022-09-23T04:12:23.991Z,5.25
2022-09-23T04:15:12.253Z,5.25
2022-09-23T04:18:00.171Z,5.25
2022-09-23T04:20:49.359Z,5.25
2022-09-23T04:23:37.896Z,5.25
2022-09-23T04:26:25.935Z,5.25
2022-09-23T04:29:14.287Z,5.25
2022-09-23T04:32:02.814Z,5.31
2022-09-23T04:34:50.629Z,5.31
2022-09-23T04:37:38.522Z,5.31
2022-09-23T04:40:29.578Z,5.38
2022-09-23T04:43:23.581Z,5.44
2022-09-23T04:46:15.338Z,5.44
2022-09-23T04:49:03.504Z,5.50
2022-09-23T04:51:51.731Z,5.50
2022-09-23T04:54:41.925Z,5.63
2022-09-23T04:57:30.154Z,5.69
2022-09-23T05:00:18.402Z,5.81
2022-09-23T05:03:07.484Z,5.88
2022-09-23T05:06:00.039Z,5.94
2022-09-23T05:08:51.580Z,6.06
2022-09-23T05:11:39.726Z,6.13
2022-09-23T05:14:27.614Z,6.25
2022-09-23T05:17:15.830Z,6.31
2022-09-23T05:20:05.187Z,6.44
2022-09-23T05:22:55.745Z,6.50
2022-09-23T05:25:45.876Z,6.63
2022-09-23T05:28:36.145Z,6.69
2022-09-23T05:31:27.507Z,6.81
2022-09-23T05:34:16.079Z,6.88
2022-09-23T05:37:04.639Z,7.00
2022-09-23T05:39:52.832Z,7.13
2022-09-23T05:42:41.400Z,7.19
2022-09-23T05:45:32.368Z,7.31
2022-09-23T05:48:20.785Z,7.38
2022-09-23T05:51:27.592Z,7.50
2022-09-23T05:54:19.546Z,7.69
2022-09-23T05:57:07.457Z,7.81
2022-09-23T05:59:55.398Z,7.94
2022-09-23T06:02:43.392Z,8.13
2022-09-23T06:05:31.670Z,8.25
2022-09-23T06:08:19.792Z,8.38
2022-09-23T06:11:27.234Z,8.50
2022-09-23T06:14:15.159Z,8.75
2022-09-23T06:17:03.222Z,8.94
2022-09-23T06:19:54.029Z,9.06
2022-09-23T06:22:41.940Z,9.25
2022-09-23T06:25:30.521Z,9.44
2022-09-23T06:28:18.395Z,9.56
2022-09-23T06:31:17.184Z,9.63
2022-09-23T06:34:11.837Z,9.88
2022-09-23T06:37:08.532Z,10.25
2022-09-23T06:40:00.118Z,10.69
2022-09-23T06:42:52.400Z,11.06
2022-09-23T06:45:40.293Z,11.88
2022-09-23T06:48:29.109Z,19.00
2022-09-23T06:51:21.713Z,25.69
2022-09-23T06:54:09.749Z,30.00
2022-09-23T06:56:58.230Z,31.94
2022-09-23T06:59:46.435Z,32.75
2022-09-23T07:02:34.612Z,33.63
2022-09-23T07:05:23.010Z,32.75
2022-09-23T07:08:13.095Z,32.75
2022-09-23T07:11:06.122Z,32.81
2022-09-23T07:13:54.167Z,32.25
2022-09-23T07:16:42.052Z,31.88
2022-09-23T07:19:30.394Z,31.06
2022-09-23T07:22:19.224Z,31.00
2022-09-23T07:25:07.686Z,31.00
2022-09-23T07:27:56.788Z,31.06
2022-09-23T07:30:57.080Z,29.94
2022-09-23T07:33:47.825Z,29.81
2022-09-23T07:36:37.747Z,30.31
2022-09-23T07:39:26.368Z,30.06
2022-09-23T07:42:14.457Z,29.94
2022-09-23T07:45:02.940Z,29.56
2022-09-23T07:47:50.817Z,29.25
2022-09-23T07:50:40.547Z,29.75
2022-09-23T07:53:30.851Z,30.06
2022-09-23T07:56:20.731Z,30.38
2022-09-23T07:59:15.634Z,30.94
2022-09-23T08:02:03.595Z,30.94
2022-09-23T08:04:51.722Z,30.81
2022-09-23T08:07:39.883Z,31.25
2022-09-23T08:10:28.044Z,30.75
2022-09-23T08:13:16.197Z,32.06
2022-09-23T08:16:04.869Z,32.50
2022-09-23T08:18:53.368Z,32.44
2022-09-23T08:21:41.990Z,32.06
2022-09-23T08:24:32.460Z,32.75
2022-09-23T08:27:20.262Z,32.38
2022-09-23T08:30:09.712Z,32.44
2022-09-23T08:32:57.964Z,31.56
2022-09-23T08:35:45.830Z,34.06
2022-09-23T08:38:34.099Z,34.69
2022-09-23T08:41:37.152Z,34.69
2022-09-23T08:44:54.538Z,31.69
2022-09-23T08:48:10.748Z,29.31
2022-09-23T08:51:11.384Z,26.94
2022-09-23T08:54:00.263Z,25.94
2022-09-23T08:56:52.629Z,25.00
2022-09-23T08:59:44.293Z,23.75
2022-09-23T09:02:35.540Z,23.06
2022-09-23T09:05:28.655Z,22.50
2022-09-23T09:08:25.506Z,22.44
2022-09-23T09:11:16.704Z,22.31
2022-09-23T09:14:40.303Z,22.13
2022-09-23T09:18:22.966Z,21.44
2022-09-23T09:21:16.178Z,21.31
2022-09-23T09:24:37.260Z,21.44
2022-09-23T09:27:25.348Z,20.94
2022-09-23T09:30:14.803Z,21.06
2022-09-23T09:33:18.049Z,20.56
2022-09-23T09:36:43.563Z,20.63
2022-09-23T09:39:32.092Z,20.75
2022-09-23T09:42:27.187Z,20.94
2022-09-23T09:46:02.377Z,21.38
2022-09-23T09:48:59.894Z,22.13
2022-09-23T09:51:47.811Z,23.25
2022-09-23T09:54:35.503Z,23.19
2022-09-23T09:57:37.907Z,23.75
2022-09-23T10:00:26.585Z,24.06
2022-09-23T10:03:14.584Z,24.50
2022-09-23T10:06:22.844Z,25.38
2022-09-23T10:09:15.660Z,27.81
2022-09-23T10:12:27.041Z,30.44
2022-09-23T10:15:44.978Z,33.81
2022-09-23T10:18:39.381Z,35.25
2022-09-23T10:21:37.029Z,35.69
2022-09-23T10:24:31.199Z,33.00
2022-09-23T10:27:31.528Z,31.44
2022-09-23T10:30:28.563Z,29.69
2022-09-23T10:33:28.058Z,28.44
2022-09-23T10:36:18.556Z,27.00
2022-09-23T10:39:28.115Z,26.63
2022-09-23T10:43:21.270Z,26.13
2022-09-23T10:46:46.003Z,27.19
2022-09-23T10:49:44.049Z,31.19
2022-09-23T10:53:02.699Z,30.13
2022-09-23T10:56:22.689Z,28.13
2022-09-23T10:59:41.127Z,28.19
2022-09-23T11:03:24.665Z,27.25
2022-09-23T11:06:18.676Z,27.50
2022-09-23T11:10:18.367Z,28.19
2022-09-23T11:13:45.008Z,30.06
2022-09-23T11:16:49.358Z,29.88
2022-09-23T11:20:22.385Z,28.63
2022-09-23T11:23:40.937Z,27.00
2022-09-23T11:27:06.445Z,26.19
2022-09-23T11:30:22.503Z,25.19
2022-09-23T11:33:14.340Z,24.44
2022-09-23T11:36:40.791Z,23.56
2022-09-23T11:39:38.307Z,23.19
2022-09-23T11:42:33.447Z,23.00
2022-09-23T11:45:34.224Z,22.88
2022-09-23T11:48:57.360Z,22.38
2022-09-23T11:51:57.321Z,21.94
2022-09-23T11:55:21.182Z,22.00
2022-09-23T11:58:25.552Z,24.00
2022-09-23T12:01:45.917Z,25.63
2022-09-23T12:04:55.198Z,26.44
2022-09-23T12:08:31.012Z,26.94
2022-09-23T12:11:46.871Z,26.00
2022-09-23T12:14:59.590Z,24.38
2022-09-23T12:18:27.944Z,24.06
2022-09-23T12:21:49.183Z,23.19
2022-09-23T12:24:59.888Z,23.06
2022-09-23T12:27:51.726Z,22.69
2022-09-23T12:30:42.000Z,22.56
2022-09-23T12:33:33.853Z,22.25
2022-09-23T12:36:36.867Z,22.00
2022-09-23T12:39:37.384Z,22.00
2022-09-23T12:42:30.776Z,21.94
2022-09-23T12:45:35.137Z,22.13
2022-09-23T12:48:44.472Z,21.88
2022-09-23T12:51:34.960Z,21.19
2022-09-23T12:54:24.902Z,20.63
2022-09-23T12:57:35.219Z,20.00
2022-09-23T13:00:29.843Z,19.56
2022-09-23T13:03:41.204Z,19.31
2022-09-23T13:06:42.131Z,19.31
2022-09-23T13:09:37.817Z,19.25
2022-09-23T13:12:36.384Z,18.94
2022-09-23T13:15:36.740Z,18.75
2022-09-23T13:18:54.797Z,18.44
2022-09-23T13:21:42.896Z,18.25
2022-09-23T13:24:54.910Z,18.25
2022-09-23T13:27:47.819Z,18.06
2022-09-23T13:30:36.345Z,17.88
2022-09-23T13:34:04.660Z,17.75
2022-09-23T13:36:53.767Z,17.56
2022-09-23T13:39:44.195Z,17.31
2022-09-23T13:42:40.916Z,17.31
2022-09-23T13:45:34.373Z,17.25
2022-09-23T13:48:25.702Z,17.25
2022-09-23T13:51:39.861Z,17.25
2022-09-23T13:54:52.730Z,17.19
2022-09-23T13:57:43.486Z,17.31
2022-09-23T14:00:37.174Z,17.31
2022-09-23T14:03:37.254Z,17.31
2022-09-23T14:06:27.587Z,17.44
2022-09-23T14:09:23.974Z,17.50
2022-09-23T14:12:12.597Z,17.44
2022-09-23T14:15:00.299Z,17.31
2022-09-23T14:18:06.502Z,17.25
2022-09-23T14:20:54.360Z,17.06
2022-09-23T14:23:45.564Z,17.13
2022-09-23T14:26:39.755Z,17.00
2022-09-23T14:29:32.858Z,16.88
2022-09-23T14:32:25.940Z,16.94
2022-09-23T14:35:27.631Z,16.88
2022-09-23T14:38:49.406Z,16.75
2022-09-23T14:41:44.635Z,16.75
2022-09-23T14:44:35.728Z,16.56
2022-09-23T14:47:25.279Z,16.38
2022-09-23T14:50:39.785Z,16.81
2022-09-23T14:53:48.313Z,16.75
2022-09-23T14:56:43.907Z,16.38
2022-09-23T14:59:37.227Z,16.63
2022-09-23T15:02:39.456Z,16.69
2022-09-23T15:05:51.088Z,16.81
2022-09-23T15:08:42.502Z,16.88
2022-09-23T15:11:31.005Z,16.44
2022-09-23T15:14:37.226Z,16.31
2022-09-23T15:17:36.666Z,15.94
2022-09-23T15:20:27.737Z,15.81
2022-09-23T15:23:55.133Z,15.63
2022-09-23T15:26:52.619Z,15.38
2022-09-23T15:29:40.455Z,15.31
2022-09-23T15:32:28.230Z,15.06
2022-09-23T15:35:23.867Z,14.75
2022-09-23T15:38:12.623Z,14.50
2022-09-23T15:41:00.595Z,14.13
2022-09-23T15:43:49.100Z,13.94
2022-09-23T15:46:38.572Z,13.75
2022-09-23T15:49:36.536Z,13.56
2022-09-23T15:52:24.924Z,13.31
2022-09-23T15:55:22.098Z,13.13
2022-09-23T15:58:10.143Z,12.94
2022-09-23T16:00:58.217Z,12.81
2022-09-23T16:03:46.062Z,12.63
2022-09-23T16:06:36.273Z,12.50
2022-09-23T16:09:24.438Z,12.38
2022-09-23T16:12:12.824Z,12.31
2022-09-23T16:15:00.648Z,12.19
2022-09-23T16:17:49.125Z,12.13
2022-09-23T16:20:42.074Z,12.06
2022-09-23T16:23:37.829Z,12.06
2022-09-23T16:26:35.302Z,12.00
2022-09-23T16:29:23.408Z,12.00
2022-09-23T16:32:11.097Z,11.94
2022-09-23T16:34:59.362Z,12.00
2022-09-23T16:37:48.393Z,11.94
2022-09-23T16:40:36.569Z,11.88
2022-09-23T16:43:24.506Z,11.81
2022-09-23T16:46:16.623Z,11.75
2022-09-23T16:49:05.174Z,11.69
2022-09-23T16:51:53.801Z,11.63
2022-09-23T16:54:54.447Z,11.56
2022-09-23T16:57:42.712Z,11.56
2022-09-23T17:00:49.576Z,11.44
2022-09-23T17:03:41.108Z,11.31
2022-09-23T17:06:29.933Z,11.19
2022-09-23T17:09:26.826Z,11.00
2022-09-23T17:12:28.154Z,10.88
2022-09-23T17:15:16.166Z,10.75
2022-09-23T17:18:06.555Z,10.63
2022-09-23T17:21:06.300Z,10.56
2022-09-23T17:23:56.764Z,10.50
2022-09-23T17:26:49.370Z,10.50
2022-09-23T17:29:40.538Z,10.38
2022-09-23T17:32:28.497Z,10.31
2022-09-23T17:35:16.648Z,10.25
2022-09-23T17:38:04.955Z,10.19
2022-09-23T17:40:56.309Z,10.13
2022-09-23T17:43:47.002Z,10.06
2022-09-23T17:46:34.926Z,10.00
2022-09-23T17:49:24.408Z,9.94
2022-09-23T17:52:12.292Z,9.88
2022-09-23T17:55:00.452Z,9.81
2022-09-23T17:57:51.678Z,9.75
2022-09-23T18:00:39.400Z,9.63
2022-09-23T18:03:29.589Z,9.56
2022-09-23T18:06:23.375Z,9.50
2022-09-23T18:09:11.744Z,9.44
2022-09-23T18:11:59.573Z,9.38
2022-09-23T18:14:49.000Z,9.38
2022-09-23T18:17:37.265Z,9.25
2022-09-23T18:20:25.312Z,9.19
2022-09-23T18:23:13.526Z,9.19
2022-09-23T18:26:01.104Z,9.13
2022-09-23T18:28:53.775Z,9.06
2022-09-23T18:31:44.458Z,9.00
2022-09-23T18:34:32.705Z,9.00
2022-09-23T18:37:21.031Z,8.94
2022-09-23T18:40:14.652Z,8.94
2022-09-23T18:43:03.626Z,8.88
2022-09-23T18:46:04.073Z,8.81
2022-09-23T18:49:11.471Z,8.81
2022-09-23T18:51:59.819Z,8.75
2022-09-23T18:54:51.780Z,8.75
2022-09-23T18:57:42.448Z,8.75
2022-09-23T19:00:31.186Z,8.69
2022-09-23T19:03:19.408Z,8.69
2022-09-23T19:06:17.171Z,8.69
2022-09-23T19:09:13.550Z,8.69
2022-09-23T19:12:03.830Z,8.75
2022-09-23T19:14:53.492Z,8.75
2022-09-23T19:17:44.463Z,8.81
2022-09-23T19:20:35.210Z,8.88
2022-09-23T19:23:23.068Z,8.88
2022-09-23T19:26:14.042Z,8.88
2022-09-23T19:29:04.526Z,8.81
2022-09-23T19:31:52.742Z,8.81
2022-09-23T19:34:40.726Z,8.81
2022-09-23T19:37:29.109Z,8.81
2022-09-23T19:40:17.396Z,8.75
2022-09-23T19:43:13.265Z,8.69
2022-09-23T19:46:01.330Z,8.63
2022-09-23T19:48:49.401Z,8.56
2022-09-23T19:51:41.458Z,8.44
2022-09-23T19:54:29.778Z,8.31
2022-09-23T19:57:17.917Z,8.25
2022-09-23T20:00:06.411Z,8.13
2022-09-23T20:03:00.598Z,8.06
2022-09-23T20:05:57.135Z,8.00
2022-09-23T20:08:46.587Z,7.94
2022-09-23T20:11:37.119Z,7.94
2022-09-23T20:14:27.323Z,7.94
2022-09-23T20:17:17.754Z,7.94
2022-09-23T20:20:06.184Z,7.94
2022-09-23T20:22:55.461Z,8.06
2022-09-23T20:26:01.999Z,8.13
2022-09-23T20:28:50.131Z,8.19
2022-09-23T20:31:40.665Z,8.25
2022-09-23T20:34:30.077Z,8.31
2022-09-23T20:37:20.596Z,8.38
2022-09-23T20:40:12.068Z,8.31
2022-09-23T20:43:00.196Z,8.25
2022-09-23T20:45:52.944Z,8.13
2022-09-23T20:48:41.607Z,8.00
2022-09-23T20:51:29.988Z,7.88
2022-09-23T20:54:19.546Z,7.75
2022-09-23T20:57:13.127Z,7.63
2022-09-23T21:00:02.271Z,7.50
2022-09-23T21:02:52.723Z,7.44
2022-09-23T21:05:42.363Z,7.44
2022-09-23T21:08:33.576Z,7.38
2022-09-23T21:11:22.719Z,7.31
2022-09-23T21:14:11.108Z,7.31
2022-09-23T21:16:59.670Z,7.25
2022-09-23T21:19:47.905Z,7.19
2022-09-23T21:22:36.434Z,7.13
2022-09-23T21:25:29.034Z,7.06
2022-09-23T21:28:20.040Z,7.06
2022-09-23T21:31:12.292Z,7.00
2022-09-23T21:34:11.465Z,6.94
2022-09-23T21:37:02.258Z,6.94
2022-09-23T21:40:10.338Z,6.94
2022-09-23T21:43:01.561Z,6.94
2022-09-23T21:45:50.000Z,7.00
2022-09-23T21:48:41.575Z,7.00
2022-09-23T21:51:59.765Z,7.00
2022-09-23T21:54:47.777Z,7.00
2022-09-23T21:57:35.660Z,7.00
2022-09-23T22:00:23.897Z,7.00
2022-09-23T22:03:12.846Z,7.00
2022-09-23T22:06:12.263Z,7.00
2022-09-23T22:09:03.903Z,7.00
2022-09-23T22:12:11.977Z,7.00
2022-09-23T22:14:59.671Z,7.00
2022-09-23T22:17:48.352Z,7.00
2022-09-23T22:20:37.105Z,7.00
2022-09-23T22:23:25.752Z,7.00
2022-09-23T22:26:13.548Z,6.94
2022-09-23T22:29:20.493Z,6.94
2022-09-23T22:32:30.362Z,6.94
2022-09-23T22:35:19.028Z,6.94
2022-09-23T22:38:06.936Z,6.94
2022-09-23T22:40:55.129Z,6.94
2022-09-23T22:43:43.079Z,6.94
2022-09-23T22:46:34.771Z,6.94
2022-09-23T22:49:22.966Z,6.94
2022-09-23T22:52:12.656Z,7.00
2022-09-23T22:55:01.232Z,7.00
2022-09-23T22:57:51.741Z,7.00
2022-09-23T23:00:39.682Z,6.94
2022-09-23T23:03:27.899Z,6.94
2022-09-23T23:06:16.077Z,6.94
2022-09-23T23:09:15.380Z,6.88
2022-09-23T23:12:03.412Z,6.88
2022-09-23T23:14:51.351Z,6.88
2022-09-23T23:17:41.408Z,6.88
2022-09-23T23:20:32.330Z,6.81
2022-09-23T23:23:20.138Z,6.75
2022-09-23T23:26:21.211Z,6.75
2022-09-23T23:29:12.173Z,6.69
2022-09-23T23:32:00.256Z,6.63
2022-09-23T23:34:48.243Z,6.63
2022-09-23T23:37:36.379Z,6.56
2022-09-23T23:40:24.351Z,6.56
2022-09-23T23:43:12.313Z,6.50
2022-09-23T23:46:01.728Z,6.50
2022-09-23T23:48:49.546Z,6.44
2022-09-23T23:51:37.562Z,6.44
2022-09-23T23:54:25.479Z,6.38
2022-09-23T23:57:13.647Z,6.38
